Time;durP1;ratioP1;P1;durP2;ratioP2;P2;SDS_P1;SDS_P2;PMS_P1;PMS_P2;Temp;Humidity;BMP_temperature;BMP_pressure;BME280_temperature;BME280_humidity;BME280_pressure;Samples;Min_cycle;Max_cycle;Signal;HPM_P1;HPM_P2
2021/06/01 00:01:33;;;;;;;1.68;1.58;;;;;;;19.05;52.26;100635.97;;;;-60
2021/06/01 00:04:33;;;;;;;1.57;1.47;;;;;;;19.04;52.26;100637.59;;;;-60
2021/06/01 00:07:34;;;;;;;2.39;1.55;;;;;;;19.04;52.22;100640.93;;;;-60
2021/06/01 00:10:33;;;;;;;1.62;1.52;;;;;;;19.04;52.27;100637.19;;;;-59
2021/06/01 00:13:34;;;;;;;1.52;1.42;;;;;;;19.04;52.29;100636.05;;;;-59
2021/06/01 00:16:33;;;;;;;1.50;1.40;;;;;;;19.03;52.31;100637.33;;;;-60
2021/06/01 00:19:33;;;;;;;1.55;1.45;;;;;;;19.02;52.27;100639.77;;;;-60
2021/06/01 00:22:34;;;;;;;1.61;1.50;;;;;;;19.02;52.33;100636.36;;;;-60
2021/06/01 00:25:33;;;;;;;1.80;1.62;;;;;;;19.01;52.31;100632.86;;;;-61
2021/06/01 00:28:33;;;;;;;1.61;1.51;;;;;;;19.00;52.22;100631.05;;;;-60
2021/06/01 00:31:33;;;;;;;1.51;1.40;;;;;;;19.00;52.28;100626.91;;;;-60
2021/06/01 00:34:33;;;;;;;2.27;1.55;;;;;;;18.99;52.25;100628.38;;;;-60
2021/06/01 00:37:33;;;;;;;1.50;1.40;;;;;;;18.99;52.25;100628.38;;;;-60
2021/06/01 00:40:34;;;;;;;1.51;1.41;;;;;;;18.98;52.26;100631.84;;;;-61
2021/06/01 00:43:33;;;;;;;1.60;1.40;;;;;;;18.97;52.27;100632.98;;;;-60
2021/06/01 00:46:33;;;;;;;1.63;1.48;;;;;;;18.97;52.21;100632.41;;;;-60
2021/06/01 00:49:33;;;;;;;1.50;1.40;;;;;;;18.97;52.25;100628.35;;;;-60
2021/06/01 00:52:33;;;;;;;1.62;1.52;;;;;;;18.96;52.33;100628.65;;;;-61
2021/06/01 00:55:33;;;;;;;1.47;1.37;;;;;;;18.96;52.27;100627.76;;;;-60
2021/06/01 00:58:33;;;;;;;1.55;1.45;;;;;;;18.95;52.25;100624.84;;;;-60
2021/06/01 01:01:34;;;;;;;1.69;1.59;;;;;;;18.95;52.23;100622.97;;;;-61
2021/06/01 01:04:34;;;;;;;1.61;1.51;;;;;;;18.95;52.25;100622.08;;;;-59
2021/06/01 01:07:38;;;;;;;1.60;1.50;;;;;;;18.94;52.26;100625.38;;;;-60
2021/06/01 01:10:34;;;;;;;1.60;1.50;;;;;;;18.94;52.18;100622.94;;;;-59
2021/06/01 01:13:33;;;;;;;1.94;1.50;;;;;;;18.93;52.25;100626.19;;;;-60
2021/06/01 01:16:33;;;;;;;1.52;1.42;;;;;;;18.93;52.22;100623.03;;;;-60
2021/06/01 01:19:33;;;;;;;1.71;1.61;;;;;;;18.92;52.17;100623.24;;;;-62
2021/06/01 01:22:33;;;;;;;1.59;1.49;;;;;;;18.92;52.25;100629.82;;;;-60
2021/06/01 01:25:33;;;;;;;1.50;1.40;;;;;;;18.92;52.23;100631.20;;;;-60
2021/06/01 01:28:33;;;;;;;1.56;1.46;;;;;;;18.91;52.23;100629.50;;;;-59
2021/06/01 01:31:33;;;;;;;1.44;1.34;;;;;;;18.91;52.26;100634.61;;;;-60
2021/06/01 01:34:33;;;;;;;1.50;1.40;;;;;;;18.91;52.16;100634.94;;;;-60
2021/06/01 01:37:34;;;;;;;1.95;1.55;;;;;;;18.90;52.21;100635.08;;;;-60
2021/06/01 01:40:33;;;;;;;1.70;1.60;;;;;;;18.90;52.14;100638.48;;;;-59
2021/06/01 01:43:34;;;;;;;1.53;1.43;;;;;;;18.90;52.24;100633.29;;;;-61
2021/06/01 01:46:47;;;;;;;1.62;1.52;;;;;;;18.90;52.30;100633.05;;;;-59
2021/06/01 01:49:33;;;;;;;1.59;1.49;;;;;;;18.89;52.23;100636.78;;;;-61
2021/06/01 01:52:33;;;;;;;1.70;1.60;;;;;;;18.88;52.28;100637.48;;;;-59
2021/06/01 01:55:34;;;;;;;1.60;1.50;;;;;;;18.89;52.16;100640.60;;;;-60
2021/06/01 01:58:33;;;;;;;1.83;1.50;;;;;;;18.88;52.16;100633.99;;;;-60
2021/06/01 02:01:33;;;;;;;1.63;1.50;;;;;;;18.88;52.17;100633.51;;;;-60
2021/06/01 02:04:33;;;;;;;1.45;1.35;;;;;;;18.87;52.23;100628.96;;;;-60
2021/06/01 02:07:33;;;;;;;1.63;1.50;;;;;;;18.87;52.25;100634.41;;;;-60
2021/06/01 02:10:33;;;;;;;1.52;1.42;;;;;;;18.87;52.19;100633.34;;;;-59
2021/06/01 02:13:33;;;;;;;1.69;1.59;;;;;;;18.86;52.20;100628.53;;;;-60
2021/06/01 02:16:33;;;;;;;1.50;1.40;;;;;;;18.86;52.18;100632.02;;;;-61
2021/06/01 02:19:33;;;;;;;1.61;1.51;;;;;;;18.86;52.21;100641.03;;;;-59
2021/06/01 02:23:48;;;;;;;1.69;1.59;;;;;;;18.85;52.20;100632.34;;;;-60
2021/06/01 02:26:33;;;;;;;1.63;1.53;;;;;;;18.85;52.20;100633.24;;;;-61
2021/06/01 02:29:33;;;;;;;1.61;1.51;;;;;;;18.85;52.21;100631.38;;;;-59
2021/06/01 02:32:33;;;;;;;1.60;1.50;;;;;;;18.84;52.18;100632.65;;;;-60
2021/06/01 02:35:33;;;;;;;1.60;1.50;;;;;;;18.84;52.19;100629.72;;;;-60
2021/06/01 02:38:33;;;;;;;1.81;1.71;;;;;;;18.83;52.22;100629.41;;;;-60
2021/06/01 02:41:33;;;;;;;1.51;1.41;;;;;;;18.84;52.21;100630.13;;;;-60
2021/06/01 02:44:33;;;;;;;1.60;1.50;;;;;;;18.82;52.22;100630.87;;;;-60
2021/06/01 02:47:33;;;;;;;1.59;1.49;;;;;;;18.82;52.13;100628.76;;;;-59
2021/06/01 02:50:33;;;;;;;1.66;1.56;;;;;;;18.83;52.15;100636.80;;;;-60
2021/06/01 02:53:33;;;;;;;1.60;1.50;;;;;;;18.83;52.20;100630.30;;;;-60
2021/06/01 02:56:33;;;;;;;1.50;1.40;;;;;;;18.82;52.22;100635.58;;;;-59
2021/06/01 02:59:33;;;;;;;1.65;1.55;;;;;;;18.82;52.22;100636.36;;;;-60
2021/06/01 03:02:33;;;;;;;1.57;1.47;;;;;;;18.82;52.16;100635.88;;;;-59
2021/06/01 03:05:33;;;;;;;1.61;1.51;;;;;;;18.82;52.21;100630.92;;;;-61
2021/06/01 03:08:33;;;;;;;1.79;1.59;;;;;;;18.80;52.17;100631.09;;;;-60
2021/06/01 03:11:33;;;;;;;1.65;1.55;;;;;;;18.81;52.23;100625.41;;;;-61
2021/06/01 03:14:33;;;;;;;1.63;1.53;;;;;;;18.81;52.16;100626.22;;;;-60
2021/06/01 03:17:34;;;;;;;1.65;1.55;;;;;;;18.79;52.22;100620.91;;;;-60
2021/06/01 03:20:33;;;;;;;1.60;1.50;;;;;;;18.80;52.17;100625.41;;;;-59
2021/06/01 03:23:33;;;;;;;1.63;1.53;;;;;;;18.79;52.17;100622.12;;;;-59
2021/06/01 03:26:33;;;;;;;3.86;1.61;;;;;;;18.79;52.16;100622.38;;;;-60
2021/06/01 03:29:33;;;;;;;1.70;1.60;;;;;;;18.78;52.22;100626.67;;;;-60
2021/06/01 03:32:33;;;;;;;1.60;1.50;;;;;;;18.78;52.21;100624.05;;;;-60
2021/06/01 03:35:33;;;;;;;1.60;1.50;;;;;;;18.77;52.23;100619.14;;;;-60
2021/06/01 03:38:35;;;;;;;1.70;1.60;;;;;;;18.77;52.17;100618.01;;;;-59
2021/06/01 03:41:33;;;;;;;1.61;1.51;;;;;;;18.77;52.13;100618.50;;;;-60
2021/06/01 03:44:33;;;;;;;1.64;1.54;;;;;;;18.77;52.18;100618.74;;;;-60
2021/06/01 03:47:33;;;;;;;2.81;2.13;;;;;;;18.77;52.16;100622.80;;;;-59
2021/06/01 03:50:34;;;;;;;1.63;1.53;;;;;;;18.76;52.17;100620.61;;;;-61
2021/06/01 03:53:33;;;;;;;1.66;1.56;;;;;;;18.76;52.19;100626.45;;;;-59
2021/06/01 03:56:33;;;;;;;4.29;1.63;;;;;;;18.76;52.17;100625.73;;;;-60
2021/06/01 03:59:33;;;;;;;1.91;1.65;;;;;;;18.76;52.23;100627.35;;;;-60
2021/06/01 04:02:33;;;;;;;1.62;1.52;;;;;;;18.76;52.19;100628.13;;;;-60
2021/06/01 04:05:33;;;;;;;1.59;1.49;;;;;;;18.75;52.17;100624.97;;;;-60
2021/06/01 04:08:33;;;;;;;1.69;1.59;;;;;;;18.75;52.20;100622.12;;;;-59
2021/06/01 04:11:33;;;;;;;1.60;1.50;;;;;;;18.75;52.21;100626.76;;;;-60
2021/06/01 04:14:33;;;;;;;1.65;1.55;;;;;;;18.74;52.19;100627.08;;;;-59
2021/06/01 04:17:33;;;;;;;1.69;1.59;;;;;;;18.74;52.20;100624.08;;;;-60
2021/06/01 04:20:33;;;;;;;1.60;1.50;;;;;;;18.74;52.24;100627.73;;;;-60
2021/06/01 04:23:33;;;;;;;1.60;1.50;;;;;;;18.73;52.25;100626.89;;;;-61
2021/06/01 04:29:51;;;;;;;1.70;1.60;;;;;;;18.74;52.26;100631.20;;;;-60
2021/06/01 04:32:51;;;;;;;1.63;1.53;;;;;;;18.73;52.26;100633.71;;;;-60
2021/06/01 04:35:51;;;;;;;1.51;1.41;;;;;;;18.73;52.28;100634.53;;;;-61
2021/06/01 04:38:51;;;;;;;1.67;1.57;;;;;;;18.73;52.27;100635.91;;;;-60
2021/06/01 04:41:51;;;;;;;1.65;1.55;;;;;;;18.72;52.27;100631.20;;;;-60
2021/06/01 04:44:51;;;;;;;1.57;1.47;;;;;;;18.72;52.29;100638.59;;;;-60
2021/06/01 04:47:51;;;;;;;2.07;1.50;;;;;;;18.72;52.28;100630.36;;;;-61
2021/06/01 04:50:51;;;;;;;1.60;1.50;;;;;;;18.71;52.29;100622.97;;;;-60
2021/06/01 04:53:51;;;;;;;1.55;1.45;;;;;;;18.71;52.29;100623.37;;;;-60
2021/06/01 04:56:51;;;;;;;1.85;1.57;;;;;;;18.71;52.29;100623.05;;;;-59
2021/06/01 04:59:51;;;;;;;1.61;1.51;;;;;;;18.71;52.30;100624.52;;;;-59
2021/06/01 05:02:51;;;;;;;8.19;1.50;;;;;;;18.71;52.31;100626.14;;;;-59
2021/06/01 05:05:51;;;;;;;1.62;1.52;;;;;;;18.70;52.31;100623.95;;;;-60
2021/06/01 05:08:51;;;;;;;1.60;1.50;;;;;;;18.71;52.36;100628.73;;;;-60
2021/06/01 05:11:51;;;;;;;1.55;1.45;;;;;;;18.70;52.32;100627.12;;;;-60
2021/06/01 05:14:51;;;;;;;1.71;1.51;;;;;;;18.70;52.33;100626.63;;;;-61
2021/06/01 05:17:51;;;;;;;1.60;1.50;;;;;;;18.69;52.30;100621.56;;;;-60
2021/06/01 05:20:51;;;;;;;1.61;1.51;;;;;;;18.69;52.31;100629.84;;;;-60
2021/06/01 05:23:51;;;;;;;1.70;1.60;;;;;;;18.70;52.33;100626.70;;;;-59
2021/06/01 05:26:51;;;;;;;1.60;1.50;;;;;;;18.69;52.32;100623.27;;;;-60
2021/06/01 05:29:54;;;;;;;1.54;1.44;;;;;;;18.69;52.33;100623.52;;;;-59
2021/06/01 05:36:51;;;;;;;1.75;1.65;;;;;;;18.69;52.32;100618.64;;;;-60
2021/06/01 05:39:51;;;;;;;6.07;2.10;;;;;;;18.61;50.30;100612.70;;;;-60
2021/06/01 05:42:51;;;;;;;2.54;2.21;;;;;;;18.58;50.21;100615.92;;;;-60
2021/06/01 05:45:51;;;;;;;2.75;2.15;;;;;;;18.51;50.12;100616.90;;;;-59
2021/06/01 05:48:51;;;;;;;2.56;2.31;;;;;;;18.52;49.88;100614.62;;;;-59
2021/06/01 05:51:51;;;;;;;5.04;2.47;;;;;;;18.47;49.87;100616.33;;;;-61
2021/06/01 05:54:51;;;;;;;3.39;2.55;;;;;;;18.46;49.64;100623.87;;;;-60
2021/06/01 05:57:51;;;;;;;4.63;2.59;;;;;;;18.44;49.72;100624.58;;;;-60
2021/06/01 06:00:51;;;;;;;3.75;2.59;;;;;;;18.42;49.79;100623.74;;;;-59
2021/06/01 06:03:51;;;;;;;4.89;2.98;;;;;;;18.46;49.41;100620.63;;;;-60
2021/06/01 06:06:51;;;;;;;2.96;2.68;;;;;;;18.40;49.14;100621.69;;;;-60
2021/06/01 06:09:51;;;;;;;4.79;2.78;;;;;;;18.41;49.35;100620.34;;;;-60
2021/06/01 06:12:51;;;;;;;3.00;2.71;;;;;;;18.42;49.17;100617.49;;;;-60
2021/06/01 06:15:51;;;;;;;3.94;2.85;;;;;;;18.37;49.29;100616.71;;;;-60
2021/06/01 06:18:51;;;;;;;4.87;2.71;;;;;;;18.35;49.47;100617.58;;;;-60
2021/06/01 06:21:51;;;;;;;5.05;2.87;;;;;;;18.37;49.22;100616.87;;;;-59
2021/06/01 06:24:51;;;;;;;3.53;2.72;;;;;;;18.34;49.18;100617.70;;;;-60
2021/06/01 06:27:51;;;;;;;3.33;2.87;;;;;;;18.34;49.23;100614.78;;;;-60
2021/06/01 06:30:51;;;;;;;6.51;3.01;;;;;;;18.32;49.29;100618.98;;;;-60
2021/06/01 06:33:51;;;;;;;4.58;2.97;;;;;;;18.34;49.32;100618.52;;;;-60
2021/06/01 06:36:51;;;;;;;2.95;2.73;;;;;;;18.36;49.37;100616.76;;;;-61
2021/06/01 06:39:51;;;;;;;3.16;2.51;;;;;;;18.38;49.42;100614.11;;;;-60
2021/06/01 06:42:51;;;;;;;6.01;2.67;;;;;;;18.40;49.47;100615.28;;;;-60
2021/06/01 06:45:51;;;;;;;4.99;2.81;;;;;;;18.42;49.51;100612.79;;;;-59
2021/06/01 06:48:51;;;;;;;3.09;2.61;;;;;;;18.44;49.54;100620.77;;;;-60
2021/06/01 06:51:51;;;;;;;4.97;2.66;;;;;;;18.44;49.60;100614.19;;;;-51
2021/06/01 06:54:51;;;;;;;3.07;2.63;;;;;;;18.46;49.70;100614.95;;;;-52
2021/06/01 06:57:51;;;;;;;3.59;2.45;;;;;;;18.46;49.80;100617.55;;;;-52
2021/06/01 07:00:51;;;;;;;2.83;2.50;;;;;;;18.48;49.89;100617.98;;;;-51
2021/06/01 07:03:52;;;;;;;3.62;2.66;;;;;;;18.48;49.94;100621.39;;;;-51
2021/06/01 07:06:51;;;;;;;2.71;2.47;;;;;;;18.49;50.03;100621.25;;;;-52
2021/06/01 07:09:51;;;;;;;2.84;2.51;;;;;;;18.50;50.08;100614.19;;;;-52
2021/06/01 07:12:52;;;;;;;3.01;2.71;;;;;;;18.50;50.16;100611.35;;;;-52
2021/06/01 07:15:51;;;;;;;2.64;2.43;;;;;;;18.51;50.22;100605.86;;;;-52
2021/06/01 07:18:51;;;;;;;4.63;2.45;;;;;;;18.52;50.26;100604.64;;;;-52
2021/06/01 07:21:51;;;;;;;2.98;2.51;;;;;;;18.51;50.33;100606.64;;;;-52
2021/06/01 07:24:51;;;;;;;2.85;2.57;;;;;;;18.52;50.36;100605.12;;;;-51
2021/06/01 07:27:51;;;;;;;2.62;2.39;;;;;;;18.52;50.42;100605.62;;;;-51
2021/06/01 07:30:51;;;;;;;3.51;2.49;;;;;;;18.53;50.47;100604.23;;;;-51
2021/06/01 07:33:51;;;;;;;3.11;2.39;;;;;;;18.53;50.49;100603.91;;;;-51
2021/06/01 07:36:51;;;;;;;2.64;2.44;;;;;;;18.54;50.52;100607.59;;;;-51
2021/06/01 07:39:51;;;;;;;2.49;2.29;;;;;;;18.53;50.55;100601.34;;;;-52
2021/06/01 07:42:51;;;;;;;2.87;2.30;;;;;;;18.54;50.59;100602.23;;;;-61
2021/06/01 07:45:51;;;;;;;2.71;2.32;;;;;;;18.54;50.62;100596.15;;;;-60
2021/06/01 07:48:51;;;;;;;2.45;2.25;;;;;;;18.55;50.66;100592.81;;;;-60
2021/06/01 07:51:51;;;;;;;2.58;2.38;;;;;;;18.54;50.67;100592.09;;;;-60
2021/06/01 07:54:51;;;;;;;2.79;2.39;;;;;;;18.55;50.71;100590.79;;;;-60
2021/06/01 07:57:51;;;;;;;2.61;2.41;;;;;;;18.57;51.07;100583.11;;;;-51
2021/06/01 08:00:51;;;;;;;2.48;2.27;;;;;;;18.56;51.69;100582.21;;;;-61
2021/06/01 08:03:51;;;;;;;3.64;2.33;;;;;;;18.58;51.75;100585.73;;;;-58
2021/06/01 08:06:51;;;;;;;3.15;2.31;;;;;;;18.60;51.82;100581.12;;;;-57
2021/06/01 08:09:51;;;;;;;3.12;2.38;;;;;;;18.62;51.92;100582.86;;;;-58
2021/06/01 08:12:52;;;;;;;2.56;2.36;;;;;;;18.63;52.02;100580.42;;;;-58
2021/06/01 08:15:51;;;;;;;2.85;2.33;;;;;;;18.66;52.00;100580.06;;;;-59
2021/06/01 08:19:01;;;;;;;2.57;2.26;;;;;;;18.68;52.07;100579.69;;;;-58
2021/06/01 08:21:55;;;;;;;2.83;2.36;;;;;;;18.69;52.16;100578.63;;;;-59
2021/06/01 08:24:51;;;;;;;3.08;2.30;;;;;;;18.70;52.22;100567.53;;;;-53
2021/06/01 08:27:51;;;;;;;2.45;2.25;;;;;;;18.72;52.22;100568.53;;;;-63
2021/06/01 08:30:52;;;;;;;2.50;2.29;;;;;;;18.74;52.25;100564.41;;;;-62
2021/06/01 08:33:51;;;;;;;2.59;2.27;;;;;;;18.75;52.24;100564.81;;;;-61
2021/06/01 08:36:52;;;;;;;2.51;2.31;;;;;;;18.78;52.31;100565.80;;;;-56
2021/06/01 08:39:51;;;;;;;3.15;2.21;;;;;;;18.78;52.35;100563.32;;;;-55
2021/06/01 08:42:52;;;;;;;2.71;2.30;;;;;;;18.81;52.31;100562.31;;;;-62
2021/06/01 08:45:51;;;;;;;2.33;2.13;;;;;;;18.82;52.38;100557.84;;;;-52
2021/06/01 08:48:52;;;;;;;3.09;2.08;;;;;;;18.84;52.33;100552.42;;;;-55
2021/06/01 08:51:51;;;;;;;4.58;2.37;;;;;;;18.85;52.40;100550.02;;;;-52
2021/06/01 08:54:51;;;;;;;4.32;2.29;;;;;;;18.88;52.18;100547.27;;;;-54
2021/06/01 08:57:51;;;;;;;2.89;2.21;;;;;;;18.88;52.39;100551.58;;;;-56
2021/06/01 09:00:51;;;;;;;2.32;2.12;;;;;;;18.89;52.30;100547.38;;;;-50
2021/06/01 09:03:53;;;;;;;4.79;2.09;;;;;;;18.90;52.22;100551.68;;;;-51
2021/06/01 09:06:58;;;;;;;3.17;2.24;;;;;;;18.90;52.26;100547.70;;;;-50
2021/06/01 09:10:00;;;;;;;2.39;2.19;;;;;;;18.89;52.20;100546.89;;;;-51
2021/06/01 09:12:58;;;;;;;2.68;2.26;;;;;;;18.88;52.17;100543.13;;;;-50
2021/06/01 09:19:53;;;;;;;2.32;2.12;;;;;;;18.87;52.14;100541.67;;;;-50
2021/06/01 09:21:51;;;;;;;2.68;2.12;;;;;;;18.87;52.06;100536.72;;;;-50
2021/06/01 09:24:51;;;;;;;2.50;2.25;;;;;;;18.88;52.11;100535.17;;;;-52
2021/06/01 09:27:51;;;;;;;3.63;2.29;;;;;;;18.89;52.17;100531.47;;;;-58
2021/06/01 09:30:54;;;;;;;2.56;2.32;;;;;;;18.90;52.18;100522.85;;;;-56
2021/06/01 09:33:51;;;;;;;3.44;2.17;;;;;;;18.91;52.16;100524.91;;;;-57
2021/06/01 09:36:51;;;;;;;4.61;2.05;;;;;;;18.94;52.21;100510.47;;;;-55
2021/06/01 09:39:51;;;;;;;2.33;2.13;;;;;;;18.95;52.12;100511.55;;;;-59
2021/06/01 09:42:51;;;;;;;5.01;2.07;;;;;;;18.95;52.10;100505.78;;;;-57
2021/06/01 09:45:51;;;;;;;3.35;2.11;;;;;;;18.94;52.16;100507.46;;;;-59
2021/06/01 09:48:51;;;;;;;2.27;1.97;;;;;;;18.94;52.06;100508.92;;;;-51
2021/06/01 09:51:52;;;;;;;2.26;2.06;;;;;;;18.94;52.04;100498.53;;;;-51
2021/06/01 09:54:57;;;;;;;3.27;2.12;;;;;;;18.94;52.05;100494.63;;;;-60
2021/06/01 09:57:51;;;;;;;3.64;2.13;;;;;;;18.93;52.06;100491.95;;;;-60
2021/06/01 10:00:51;;;;;;;2.23;1.93;;;;;;;18.93;51.96;100487.98;;;;-60
2021/06/01 10:03:51;;;;;;;2.19;2.00;;;;;;;18.93;51.97;100483.43;;;;-60
2021/06/01 10:06:51;;;;;;;2.19;1.99;;;;;;;18.93;51.97;100475.31;;;;-60
2021/06/01 10:09:51;;;;;;;3.07;2.10;;;;;;;18.93;51.91;100479.05;;;;-59
2021/06/01 10:12:51;;;;;;;3.06;2.03;;;;;;;18.92;51.90;100481.78;;;;-60
2021/06/01 10:15:51;;;;;;;2.15;1.90;;;;;;;18.92;51.88;100472.52;;;;-59
2021/06/01 10:18:51;;;;;;;2.20;2.00;;;;;;;18.93;51.85;100469.70;;;;-60
2021/06/01 10:21:54;;;;;;;2.67;2.09;;;;;;;18.93;51.85;100466.46;;;;-59
2021/06/01 10:24:51;;;;;;;3.14;2.19;;;;;;;18.93;51.79;100467.27;;;;-60
2021/06/01 10:27:52;;;;;;;3.71;2.21;;;;;;;18.94;51.90;100464.17;;;;-59
2021/06/01 10:30:53;;;;;;;2.78;2.13;;;;;;;18.95;51.87;100465.26;;;;-59
2021/06/01 10:33:51;;;;;;;2.84;2.10;;;;;;;18.97;51.92;100462.84;;;;-61
2021/06/01 10:42:58;;;;;;;2.38;2.00;;;;;;;19.02;52.33;100455.40;;;;-57
2021/06/01 10:49:15;;;;;;;2.84;1.81;;;;;;;19.04;52.12;100462.64;;;;-56
2021/06/01 10:51:51;;;;;;;3.09;2.00;;;;;;;19.03;52.11;100457.61;;;;-57
2021/06/01 10:54:51;;;;;;;2.36;1.89;;;;;;;19.03;52.09;100458.02;;;;-56
2021/06/01 10:57:51;;;;;;;3.67;2.00;;;;;;;19.02;52.12;100454.42;;;;-58
2021/06/01 11:03:51;;;;;;;2.99;2.09;;;;;;;19.01;52.03;100440.78;;;;-59
2021/06/01 11:06:53;;;;;;;3.11;1.95;;;;;;;19.02;51.98;100439.48;;;;-59
2021/06/01 11:09:51;;;;;;;3.54;1.86;;;;;;;19.01;51.99;100429.25;;;;-58
2021/06/01 11:12:51;;;;;;;2.91;2.03;;;;;;;19.00;51.97;100428.25;;;;-51
2021/06/01 11:15:51;;;;;;;2.41;1.79;;;;;;;18.99;51.89;100425.09;;;;-52
2021/06/01 11:18:53;;;;;;;3.26;1.91;;;;;;;19.01;51.95;100410.22;;;;-52
2021/06/01 11:21:58;;;;;;;3.64;1.87;;;;;;;19.00;51.88;100411.28;;;;-50
2021/06/01 11:25:09;;;;;;;3.41;2.03;;;;;;;19.00;51.86;100419.56;;;;-50
2021/06/01 11:33:33;;;;;;;1.91;1.80;;;;;;;19.00;51.85;100419.56;;;;-59
2021/06/01 11:35:51;;;;;;;2.81;1.88;;;;;;;18.99;51.84;100412.10;;;;-59
2021/06/01 11:38:54;;;;;;;2.14;1.84;;;;;;;19.00;51.86;100407.14;;;;-50
2021/06/01 11:42:52;;;;;;;3.45;1.91;;;;;;;19.00;51.84;100406.24;;;;-55
2021/06/01 11:45:55;;;;;;;2.09;1.84;;;;;;;19.00;51.83;100407.05;;;;-56
2021/06/01 11:51:51;;;;;;;2.28;2.08;;;;;;;18.99;51.79;100389.44;;;;-59
2021/06/01 11:54:51;;;;;;;3.44;1.82;;;;;;;19.00;51.79;100390.49;;;;-59
2021/06/01 12:02:57;;;;;;;1.82;1.65;;;;;;;19.00;51.77;100381.97;;;;-59
2021/06/01 12:13:59;;;;;;;2.15;1.86;;;;;;;19.07;51.94;100372.33;;;;-58
2021/06/01 12:17:15;;;;;;;3.53;1.81;;;;;;;19.06;51.99;100362.76;;;;-54
2021/06/01 12:19:51;;;;;;;2.53;1.69;;;;;;;19.06;52.02;100360.16;;;;-59
2021/06/01 12:22:51;;;;;;;2.31;1.85;;;;;;;19.05;51.94;100364.96;;;;-54
2021/06/01 12:25:52;;;;;;;2.71;1.80;;;;;;;19.05;51.94;100360.14;;;;-58
2021/06/01 12:31:51;;;;;;;4.77;1.79;;;;;;;19.06;51.87;100351.95;;;;-57
2021/06/01 12:34:56;;;;;;;2.59;1.80;;;;;;;19.06;51.91;100359.34;;;;-56
2021/06/01 12:43:57;;;;;;;2.51;1.76;;;;;;;19.06;51.88;100353.34;;;;-58
2021/06/01 12:47:08;;;;;;;4.54;1.90;;;;;;;19.05;51.77;100354.16;;;;-58
2021/06/01 13:14:05;;;;;;;3.50;1.90;;;;;;;19.04;51.80;100322.37;;;;-56
2021/06/01 13:19:55;;;;;;;1.79;1.60;;;;;;;19.04;51.83;100313.94;;;;-58
2021/06/01 13:22:58;;;;;;;3.27;1.60;;;;;;;19.05;51.77;100318.06;;;;-55
2021/06/01 13:36:22;;;;;;;2.81;1.71;;;;;;;19.05;51.74;100301.28;;;;-56
2021/06/01 13:38:54;;;;;;;2.09;1.64;;;;;;;19.04;51.71;100296.47;;;;-55
2021/06/01 13:46:51;;;;;;;2.12;1.62;;;;;;;19.06;51.78;100283.33;;;;-54
2021/06/01 13:49:54;;;;;;;2.05;1.83;;;;;;;19.07;51.80;100282.50;;;;-57
2021/06/01 13:53:03;;;;;;;2.43;1.67;;;;;;;19.09;51.82;100288.45;;;;-57
2021/06/01 13:55:55;;;;;;;3.87;1.89;;;;;;;19.11;51.91;100282.15;;;;-59
2021/06/01 13:58:58;;;;;;;5.39;1.85;;;;;;;19.10;51.92;100274.66;;;;-60
2021/06/01 14:02:09;;;;;;;2.53;1.73;;;;;;;19.10;51.93;100266.22;;;;-62
2021/06/01 14:11:27;;;;;;;4.18;1.81;;;;;;;19.09;51.97;100268.55;;;;-53
2021/06/01 14:36:44;;;;;;;4.57;1.79;;;;;;;19.06;51.89;100248.16;;;;-56
2021/06/01 14:40:35;;;;;;;3.69;1.75;;;;;;;19.09;51.92;100234.92;;;;-59
2021/06/01 15:09:29;;;;;;;3.79;1.98;;;;;;;19.18;52.32;100220.69;;;;-55
2021/06/01 15:28:56;;;;;;;5.83;2.14;;;;;;;19.21;52.85;100199.55;;;;-60
2021/06/01 15:31:56;;;;;;;4.61;2.02;;;;;;;19.23;52.85;100197.28;;;;-52
2021/06/01 15:49:03;;;;;;;4.70;2.11;;;;;;;19.27;52.86;100185.92;;;;-57
2021/06/01 15:52:04;;;;;;;5.77;2.04;;;;;;;19.29;52.86;100186.75;;;;-60
2021/06/01 16:12:06;;;;;;;3.88;1.95;;;;;;;19.34;52.92;100162.86;;;;-48
2021/06/01 16:15:05;;;;;;;5.30;2.25;;;;;;;19.35;52.87;100165.06;;;;-54
2021/06/01 16:29:35;;;;;;;2.38;1.93;;;;;;;19.36;52.77;100158.02;;;;-59
2021/06/01 16:30:07;;;;;;;2.41;1.83;;;;;;;19.37;52.82;100160.20;;;;-54
2021/06/01 16:33:13;;;;;;;2.25;1.80;;;;;;;19.37;52.80;100158.09;;;;-59
2021/06/01 16:43:02;;;;;;;3.40;1.87;;;;;;;19.40;52.81;100152.48;;;;-55
2021/06/01 17:03:58;;;;;;;2.51;1.90;;;;;;;19.35;52.62;100148.98;;;;-53
2021/06/01 17:06:55;;;;;;;6.10;1.81;;;;;;;19.35;52.53;100146.14;;;;-55
2021/06/01 17:12:51;;;;;;;3.75;1.85;;;;;;;19.33;52.50;100143.29;;;;-55
2021/06/01 17:15:51;;;;;;;2.57;1.84;;;;;;;19.33;52.46;100140.45;;;;-54
2021/06/01 17:19:14;;;;;;;4.09;1.77;;;;;;;19.32;52.49;100138.59;;;;-53
2021/06/01 17:31:00;;;;;;;2.33;1.79;;;;;;;19.31;52.37;100133.30;;;;-51
2021/06/01 17:36:51;;;;;;;2.32;1.73;;;;;;;19.31;52.34;100130.05;;;;-53
2021/06/01 17:39:51;;;;;;;3.84;1.71;;;;;;;19.30;52.34;100133.69;;;;-53
2021/06/01 17:42:51;;;;;;;2.21;1.70;;;;;;;19.29;52.35;100134.99;;;;-53
2021/06/01 17:45:51;;;;;;;1.87;1.70;;;;;;;19.29;52.30;100136.70;;;;-53
2021/06/01 17:48:55;;;;;;;2.37;1.72;;;;;;;19.29;52.28;100140.60;;;;-53
2021/06/01 17:51:52;;;;;;;2.35;1.69;;;;;;;19.28;52.30;100136.30;;;;-51
2021/06/01 17:54:51;;;;;;;4.54;1.95;;;;;;;19.30;52.50;100133.52;;;;-54
2021/06/01 17:57:51;;;;;;;2.42;1.73;;;;;;;19.32;52.51;100131.25;;;;-58
2021/06/01 18:00:51;;;;;;;2.98;1.83;;;;;;;19.33;52.55;100125.74;;;;-58
2021/06/01 18:03:56;;;;;;;2.41;1.71;;;;;;;19.35;52.62;100127.53;;;;-52
2021/06/01 18:06:53;;;;;;;2.73;1.89;;;;;;;19.37;52.55;100127.22;;;;-59
2021/06/01 18:10:22;;;;;;;6.05;2.16;;;;;;;19.36;52.62;100127.22;;;;-52
2021/06/01 18:35:25;;;;;;;3.37;1.73;;;;;;;19.38;52.68;100118.86;;;;-58
2021/06/01 18:40:43;;;;;;;2.76;1.84;;;;;;;19.40;52.61;100117.40;;;;-53
2021/06/01 18:41:24;;;;;;;3.87;1.80;;;;;;;19.39;52.63;100114.95;;;;-51
2021/06/01 18:59:55;;;;;;;3.25;1.77;;;;;;;19.37;52.59;100116.33;;;;-63
2021/06/01 19:02:06;;;;;;;3.06;1.83;;;;;;;19.39;52.65;100119.50;;;;-60
2021/06/01 19:24:12;;;;;;;1.83;1.61;;;;;;;19.41;52.71;100140.95;;;;-61
2021/06/01 19:44:20;;;;;;;4.01;1.76;;;;;;;19.40;52.64;100149.73;;;;-59
2021/06/01 19:50:00;;;;;;;5.10;1.77;;;;;;;19.42;52.96;100153.38;;;;-54
2021/06/01 19:52:51;;;;;;;3.06;1.81;;;;;;;19.44;53.01;100156.14;;;;-51
2021/06/01 19:55:51;;;;;;;2.99;1.81;;;;;;;19.45;53.01;100155.42;;;;-54
2021/06/01 19:58:51;;;;;;;3.74;1.65;;;;;;;19.45;53.07;100155.26;;;;-54
2021/06/01 20:01:51;;;;;;;2.93;1.71;;;;;;;19.47;53.18;100162.83;;;;-60
2021/06/01 20:04:51;;;;;;;4.40;1.73;;;;;;;19.47;53.14;100164.12;;;;-52
2021/06/01 20:07:51;;;;;;;4.45;1.79;;;;;;;19.48;53.15;100164.11;;;;-54
2021/06/01 20:10:54;;;;;;;2.07;1.61;;;;;;;19.48;53.29;100163.46;;;;-50
2021/06/01 20:13:51;;;;;;;2.42;1.60;;;;;;;19.50;53.17;100164.36;;;;-50
2021/06/01 20:16:52;;;;;;;2.39;1.61;;;;;;;19.51;53.23;100163.33;;;;-55
2021/06/01 20:19:51;;;;;;;3.01;1.66;;;;;;;19.51;53.35;100159.80;;;;-51
2021/06/01 20:22:51;;;;;;;3.56;1.81;;;;;;;19.52;53.46;100162.33;;;;-53
2021/06/01 20:25:51;;;;;;;4.81;1.66;;;;;;;19.53;53.35;100159.02;;;;-55
2021/06/01 20:28:52;;;;;;;4.93;1.73;;;;;;;19.53;53.35;100158.69;;;;-59
2021/06/01 20:31:57;;;;;;;2.62;1.71;;;;;;;19.54;53.45;100161.04;;;;-60
2021/06/01 20:34:51;;;;;;;2.54;1.77;;;;;;;19.54;53.43;100159.16;;;;-52
2021/06/01 20:37:51;;;;;;;4.26;1.88;;;;;;;19.55;53.41;100162.89;;;;-56
2021/06/01 20:40:51;;;;;;;2.53;1.61;;;;;;;19.54;53.45;100157.61;;;;-44
2021/06/01 20:43:51;;;;;;;3.33;1.73;;;;;;;19.55;53.33;100161.12;;;;-54
2021/06/01 20:46:50;;;;;;;3.33;1.77;;;;;;;19.56;53.34;100157.62;;;;-52
2021/06/01 20:49:51;;;;;;;2.29;1.50;;;;;;;19.56;53.56;100158.77;;;;-50
2021/06/01 20:52:51;;;;;;;1.77;1.59;;;;;;;19.56;53.54;100158.52;;;;-62
2021/06/01 20:55:51;;;;;;;2.75;1.65;;;;;;;19.57;53.63;100161.06;;;;-51
2021/06/01 20:58:51;;;;;;;2.89;1.49;;;;;;;19.57;53.68;100163.81;;;;-51
2021/06/01 21:01:51;;;;;;;2.63;1.54;;;;;;;19.57;53.66;100160.65;;;;-49
2021/06/01 21:04:51;;;;;;;2.65;1.73;;;;;;;19.58;53.57;100164.38;;;;-56
2021/06/01 21:07:51;;;;;;;2.87;1.57;;;;;;;19.57;53.62;100167.88;;;;-54
2021/06/01 21:10:51;;;;;;;2.93;1.87;;;;;;;19.58;53.65;100168.77;;;;-50
2021/06/01 21:13:51;;;;;;;2.25;1.61;;;;;;;19.59;53.62;100170.89;;;;-49
2021/06/01 21:16:51;;;;;;;2.26;1.70;;;;;;;19.59;53.68;100175.28;;;;-51
2021/06/01 21:19:51;;;;;;;2.85;1.57;;;;;;;19.59;53.56;100181.05;;;;-58
2021/06/01 21:22:51;;;;;;;2.64;1.71;;;;;;;19.60;53.59;100184.86;;;;-52
2021/06/01 21:25:51;;;;;;;2.52;1.64;;;;;;;19.60;53.54;100186.00;;;;-56
2021/06/01 21:28:51;;;;;;;2.43;1.59;;;;;;;19.61;53.51;100184.77;;;;-52
2021/06/01 21:31:51;;;;;;;2.13;1.69;;;;;;;19.59;53.58;100183.48;;;;-53
2021/06/01 21:34:51;;;;;;;1.74;1.57;;;;;;;19.60;53.52;100187.13;;;;-48
2021/06/01 21:37:51;;;;;;;1.94;1.67;;;;;;;19.60;53.48;100183.97;;;;-60
2021/06/01 21:40:51;;;;;;;2.71;1.71;;;;;;;19.61;53.49;100185.91;;;;-55
2021/06/01 21:43:51;;;;;;;1.61;1.50;;;;;;;19.60;53.47;100189.25;;;;-56
2021/06/01 21:46:51;;;;;;;1.84;1.59;;;;;;;19.61;53.49;100194.69;;;;-61
2021/06/01 21:49:51;;;;;;;3.39;1.73;;;;;;;19.61;53.41;100194.95;;;;-57
2021/06/01 21:52:51;;;;;;;3.14;1.60;;;;;;;19.60;53.33;100190.72;;;;-57
2021/06/01 21:55:51;;;;;;;2.16;1.58;;;;;;;19.59;53.33;100192.33;;;;-49
2021/06/01 21:58:51;;;;;;;2.84;1.66;;;;;;;19.57;53.33;100195.84;;;;-49
2021/06/01 22:01:51;;;;;;;6.87;1.66;;;;;;;19.56;53.30;100198.99;;;;-50
2021/06/01 22:04:51;;;;;;;3.19;1.77;;;;;;;19.55;53.32;100199.47;;;;-49
2021/06/01 22:07:51;;;;;;;5.00;1.74;;;;;;;19.53;53.28;100202.98;;;;-49